Time;durP1;ratioP1;P1;durP2;ratioP2;P2;SDS_P1;SDS_P2;PMS_P1;PMS_P2;Temp;Humidity;BMP_temperature;BMP_pressure;BME280_temperature;BME280_humidity;BME280_pressure;Samples;Min_cycle;Max_cycle;Signal;HPM_P1;HPM_P2
2022/07/13 00:01:33;;;;;;;2.67;1.75;;;;;;;21.85;65.53;101895.22;5027536;28;20059;-77
2022/07/13 00:03:58;;;;;;;2.60;1.88;;;;;;;21.83;65.29;101892.81;5064142;28;20032;-77
2022/07/13 00:06:24;;;;;;;3.78;2.03;;;;;;;21.82;65.25;101887.72;5058933;28;20036;-78
2022/07/13 00:08:49;;;;;;;2.95;2.10;;;;;;;21.79;65.37;101894.22;5060393;28;20020;-76
2022/07/13 00:11:15;;;;;;;2.30;1.92;;;;;;;21.72;66.27;101888.94;5061888;28;20040;-76
2022/07/13 00:13:41;;;;;;;3.83;2.35;;;;;;;21.68;66.67;101890.38;5047030;28;20028;-77
2022/07/13 00:16:06;;;;;;;3.20;1.98;;;;;;;21.68;66.90;101900.94;5045021;28;20032;-77
2022/07/13 00:18:32;;;;;;;4.35;2.53;;;;;;;21.65;67.36;101895.25;5043995;28;20029;-77
2022/07/13 00:20:57;;;;;;;4.50;2.20;;;;;;;21.61;67.54;101900.13;5058937;28;20029;-77
2022/07/13 00:23:24;;;;;;;5.18;2.22;;;;;;;21.56;67.75;101891.97;5040668;28;20029;-77
2022/07/13 00:25:49;;;;;;;2.90;2.22;;;;;;;21.56;67.49;101900.72;5043469;28;20051;-77
2022/07/13 00:28:15;;;;;;;3.22;2.58;;;;;;;21.55;68.15;101901.72;5043127;28;20504;-77
2022/07/13 00:30:41;;;;;;;6.43;2.72;;;;;;;21.54;68.34;101892.19;5044707;28;20039;-77
2022/07/13 00:33:07;;;;;;;6.03;2.05;;;;;;;21.52;68.54;101888.94;5062834;28;20031;-77
2022/07/13 00:35:33;;;;;;;4.40;2.20;;;;;;;21.47;68.92;101872.88;5038593;28;20156;-77
2022/07/13 00:37:59;;;;;;;6.05;2.63;;;;;;;21.43;69.14;101870.84;5032314;28;20029;-77
2022/07/13 00:40:24;;;;;;;5.13;2.55;;;;;;;21.41;69.28;101873.69;5042490;28;20075;-77
2022/07/13 00:42:50;;;;;;;3.70;2.30;;;;;;;21.42;68.89;101872.69;5044788;28;20027;-77
2022/07/13 00:45:16;;;;;;;8.40;2.38;;;;;;;21.40;68.71;101869.44;5046299;28;20033;-77
2022/07/13 00:47:44;;;;;;;6.90;2.78;;;;;;;21.36;68.98;101860.28;5024140;28;20025;-77
2022/07/13 00:50:10;;;;;;;2.78;2.38;;;;;;;21.36;68.87;101863.75;5027824;28;20031;-77
2022/07/13 00:52:37;;;;;;;3.65;2.78;;;;;;;21.39;68.43;101854.59;5045713;28;20037;-77
2022/07/13 00:55:05;;;;;;;5.25;3.50;;;;;;;21.41;68.60;101857.03;5046327;28;20477;-77
2022/07/13 00:57:37;;;;;;;3.85;2.15;;;;;;;21.42;68.64;101863.94;5046645;28;20748;-77
2022/07/13 01:00:06;;;;;;;4.72;2.60;;;;;;;21.41;68.80;101857.03;5046946;28;20642;-76
2022/07/13 01:02:31;;;;;;;4.30;2.55;;;;;;;21.39;68.90;101857.25;5044320;28;20032;-77
2022/07/13 01:05:00;;;;;;;5.43;2.50;;;;;;;21.38;69.29;101861.72;5047219;28;20025;-77
2022/07/13 01:07:25;;;;;;;3.17;2.20;;;;;;;21.37;69.53;101862.72;5040270;28;20495;-77
2022/07/13 01:09:51;;;;;;;6.38;2.65;;;;;;;21.37;69.44;101857.44;5046891;28;20031;-77
2022/07/13 01:12:16;;;;;;;4.65;2.20;;;;;;;21.31;69.85;101847.72;5041580;28;20032;-77
2022/07/13 01:14:42;;;;;;;2.88;2.60;;;;;;;21.29;69.96;101859.47;5062612;28;20495;-78
2022/07/13 01:17:09;;;;;;;4.30;2.55;;;;;;;21.28;69.76;101852.56;5046122;28;20047;-78
2022/07/13 01:19:35;;;;;;;6.10;2.50;;;;;;;21.23;69.90;101853.19;5041971;28;20089;-77
2022/07/13 01:22:03;;;;;;;4.65;2.53;;;;;;;21.20;69.79;101853.59;5046861;28;20103;-77
2022/07/13 01:24:30;;;;;;;7.53;2.65;;;;;;;21.12;70.50;101835.31;5044499;28;20228;-77
2022/07/13 01:26:56;;;;;;;4.20;2.45;;;;;;;21.02;70.98;101826.97;5046792;28;20040;-75
2022/07/13 01:29:21;;;;;;;5.18;2.35;;;;;;;20.94;71.26;101815.59;5067740;28;20032;-77
2022/07/13 01:31:47;;;;;;;3.05;2.40;;;;;;;20.94;71.15;101833.25;5047253;28;20047;-77
2022/07/13 01:34:13;;;;;;;7.60;2.10;;;;;;;20.95;70.99;101825.16;5061412;28;20052;-77
2022/07/13 01:36:42;;;;;;;4.72;2.15;;;;;;;20.96;70.42;101825.97;5042602;28;20048;-78
2022/07/13 01:39:07;;;;;;;3.92;1.77;;;;;;;20.98;69.90;101822.13;5040684;28;20033;-77
2022/07/13 01:41:33;;;;;;;3.90;2.40;;;;;;;20.99;69.64;101818.47;5029742;28;20469;-78
2022/07/13 01:43:59;;;;;;;4.35;2.38;;;;;;;20.99;69.78;101809.75;5050788;28;20032;-78
2022/07/13 01:46:27;;;;;;;2.78;1.95;;;;;;;20.98;69.64;101816.03;5052056;28;20433;-77
2022/07/13 01:48:56;;;;;;;3.67;2.35;;;;;;;20.98;69.28;101818.66;5027909;28;20021;-78
2022/07/13 01:51:22;;;;;;;4.80;2.40;;;;;;;20.98;69.23;101816.03;5036974;28;20032;-76
2022/07/13 01:53:47;;;;;;;5.53;2.25;;;;;;;20.97;68.63;101817.03;5048551;28;20087;-78
2022/07/13 01:56:13;;;;;;;2.97;1.90;;;;;;;20.96;68.83;101810.97;5048716;28;20490;-76
2022/07/13 01:58:39;;;;;;;3.22;2.28;;;;;;;20.95;68.77;101805.91;5031262;28;20040;-78
2022/07/13 02:01:04;;;;;;;6.30;2.22;;;;;;;20.92;69.11;101804.44;5028130;28;20167;-78
2022/07/13 02:03:32;;;;;;;3.38;1.92;;;;;;;20.89;69.63;101790.84;5046738;28;20496;-76
2022/07/13 02:05:58;;;;;;;15.32;2.95;;;;;;;20.85;68.35;101792.28;5063714;28;20098;-77
2022/07/13 02:08:27;;;;;;;3.42;2.17;;;;;;;20.79;68.47;101792.09;5043341;28;20025;-77
2022/07/13 02:10:52;;;;;;;3.95;2.28;;;;;;;20.75;68.72;101780.28;5063219;28;20032;-76
2022/07/13 02:13:21;;;;;;;4.75;2.10;;;;;;;20.72;69.19;101780.72;5033028;28;20036;-76
2022/07/13 02:15:47;;;;;;;5.13;2.33;;;;;;;20.72;69.61;101780.72;5029172;28;20036;-77
2022/07/13 02:18:13;;;;;;;4.45;2.00;;;;;;;20.72;69.86;101785.16;5047572;28;20543;-78
2022/07/13 02:20:39;;;;;;;6.18;2.75;;;;;;;20.71;69.86;101781.72;5047675;28;20059;-77
2022/07/13 02:23:05;;;;;;;6.30;2.88;;;;;;;20.71;69.68;101773.81;5048887;28;20525;-81
2022/07/13 02:25:32;;;;;;;4.82;1.90;;;;;;;20.72;69.75;101780.72;5031326;28;20123;-76
2022/07/13 02:27:58;;;;;;;6.40;2.60;;;;;;;20.72;69.44;101787.78;5061133;28;20063;-77
2022/07/13 02:30:24;;;;;;;6.10;2.30;;;;;;;20.71;69.14;101783.53;5029889;28;20481;-75
2022/07/13 02:32:51;;;;;;;5.28;2.22;;;;;;;20.68;68.53;101776.03;5028563;28;20028;-77
2022/07/13 02:35:16;;;;;;;12.35;3.28;;;;;;;20.67;67.99;101775.22;5047495;28;20024;-77
2022/07/13 02:37:42;;;;;;;8.52;2.45;;;;;;;20.62;67.59;101780.28;5047537;28;20563;-75
2022/07/13 02:40:11;;;;;;;5.70;2.50;;;;;;;20.56;67.93;101773.94;5036783;28;20035;-76
2022/07/13 02:42:36;;;;;;;4.57;2.60;;;;;;;20.54;67.65;101767.25;5029869;28;20035;-74
2022/07/13 02:45:04;;;;;;;6.15;2.30;;;;;;;20.43;67.95;101766.81;5030871;28;20033;-76
2022/07/13 02:47:31;;;;;;;7.15;2.20;;;;;;;20.39;68.14;101767.41;5043037;28;20028;-77
2022/07/13 02:49:58;;;;;;;16.73;2.90;;;;;;;20.36;68.85;101768.63;5044524;28;20060;-77
2022/07/13 02:52:24;;;;;;;4.82;2.55;;;;;;;20.35;68.73;101764.38;5046967;28;20045;-76
2022/07/13 02:54:49;;;;;;;5.55;2.40;;;;;;;20.34;69.78;101765.38;5041781;28;20125;-76
2022/07/13 02:57:15;;;;;;;4.45;2.65;;;;;;;20.35;70.54;101772.25;5046441;28;20036;-75
2022/07/13 02:59:41;;;;;;;7.30;2.33;;;;;;;20.36;70.48;101766.00;5048238;28;20103;-77
2022/07/13 03:02:07;;;;;;;5.35;2.33;;;;;;;20.35;70.04;101769.63;5042019;28;20154;-75
2022/07/13 03:04:34;;;;;;;4.22;1.92;;;;;;;20.36;69.96;101758.09;5050215;28;20024;-79
2022/07/13 03:06:59;;;;;;;6.97;2.45;;;;;;;20.37;70.03;101766.81;5042504;28;20021;-77
2022/07/13 03:09:25;;;;;;;6.90;2.45;;;;;;;20.39;70.29;101765.59;5046654;28;20039;-75
2022/07/13 03:11:51;;;;;;;7.20;2.10;;;;;;;20.36;70.04;101768.63;5038973;28;20119;-78
2022/07/13 03:14:18;;;;;;;5.05;2.47;;;;;;;20.35;69.87;101764.38;5037134;28;20029;-76
2022/07/13 03:16:43;;;;;;;5.93;2.10;;;;;;;20.33;70.16;101758.47;5046186;28;20035;-78
2022/07/13 03:19:09;;;;;;;7.90;2.42;;;;;;;20.33;70.45;101763.75;5035591;28;20032;-78
2022/07/13 03:21:35;;;;;;;3.53;2.45;;;;;;;20.34;70.30;101760.13;5047103;28;20528;-78
2022/07/13 03:24:02;;;;;;;8.35;2.45;;;;;;;20.36;69.96;101765.16;5046766;28;20040;-78
2022/07/13 03:26:28;;;;;;;6.93;3.08;;;;;;;20.35;69.77;101759.09;5041646;28;20040;-76
2022/07/13 03:28:54;;;;;;;4.57;2.40;;;;;;;20.36;69.88;101755.47;5030430;28;20124;-77
2022/07/13 03:31:20;;;;;;;7.68;3.10;;;;;;;20.37;69.85;101757.06;5041122;28;20029;-77
2022/07/13 03:33:46;;;;;;;8.05;2.08;;;;;;;20.37;69.24;101751.81;5046570;28;20032;-76
2022/07/13 03:36:13;;;;;;;7.70;2.72;;;;;;;20.38;68.56;101752.59;5031206;28;20566;-76
2022/07/13 03:38:39;;;;;;;6.97;2.67;;;;;;;20.27;69.11;101751.38;5044313;28;20029;-77
2022/07/13 03:41:05;;;;;;;8.27;2.45;;;;;;;20.22;69.02;101751.16;5042032;28;20059;-77
2022/07/13 03:43:31;;;;;;;6.60;2.63;;;;;;;20.22;69.25;101751.97;5046784;28;20710;-78
2022/07/13 03:45:57;;;;;;;3.65;2.08;;;;;;;20.26;69.32;101755.00;5047097;28;20021;-77
2022/07/13 03:48:23;;;;;;;5.13;2.60;;;;;;;20.27;69.80;101756.66;5037860;28;20024;-77
2022/07/13 03:50:49;;;;;;;4.03;2.50;;;;;;;20.28;70.08;101758.25;5064995;28;20048;-76
2022/07/13 03:53:15;;;;;;;6.82;2.58;;;;;;;20.29;69.58;101759.91;5043104;28;20029;-78
2022/07/13 03:55:42;;;;;;;5.30;3.00;;;;;;;20.29;69.66;101756.47;5028558;28;20033;-77
2022/07/13 03:58:10;;;;;;;5.53;2.40;;;;;;;20.25;69.93;101747.31;5044470;28;20618;-77
2022/07/13 04:00:37;;;;;;;6.63;2.78;;;;;;;20.23;70.39;101745.69;5043915;28;20389;-76
2022/07/13 04:03:03;;;;;;;4.85;2.60;;;;;;;20.20;70.70;101755.81;5043341;28;20115;-77
2022/07/13 04:05:29;;;;;;;5.03;2.55;;;;;;;20.18;70.46;101757.81;5030480;28;20464;-77
2022/07/13 04:07:55;;;;;;;5.80;2.08;;;;;;;20.21;70.92;101750.34;5041287;28;20044;-77
2022/07/13 04:10:21;;;;;;;5.85;2.15;;;;;;;20.24;70.89;101751.75;5044206;28;20037;-78
2022/07/13 04:12:48;;;;;;;9.60;2.20;;;;;;;20.25;71.29;101739.41;5036335;28;20112;-78
2022/07/13 04:15:15;;;;;;;10.10;2.60;;;;;;;20.19;71.76;101736.56;5043166;28;20054;-76
2022/07/13 04:17:42;;;;;;;9.32;2.47;;;;;;;20.16;72.07;101736.16;5040322;28;20032;-77
2022/07/13 04:20:10;;;;;;;4.85;2.40;;;;;;;20.16;71.91;101744.06;5044554;28;20086;-78
2022/07/13 04:22:36;;;;;;;8.40;3.17;;;;;;;20.17;72.15;101746.50;5042824;28;20032;-76
2022/07/13 04:25:05;;;;;;;5.00;2.60;;;;;;;20.18;71.64;101742.84;5047320;28;20048;-78
2022/07/13 04:27:31;;;;;;;6.15;2.75;;;;;;;20.21;71.04;101752.97;5037302;28;20032;-76
2022/07/13 04:29:57;;;;;;;4.95;2.38;;;;;;;20.24;70.98;101754.41;5036402;28;20035;-78
2022/07/13 04:32:23;;;;;;;6.65;2.25;;;;;;;20.26;70.89;101755.00;5050080;28;20032;-77
2022/07/13 04:34:48;;;;;;;6.32;2.78;;;;;;;20.29;70.81;101751.19;5042202;28;20535;-78
2022/07/13 04:37:14;;;;;;;7.25;2.78;;;;;;;20.30;71.04;101752.78;5034286;28;20602;-78
2022/07/13 04:39:40;;;;;;;5.50;2.40;;;;;;;20.28;71.20;101744.28;5070120;28;20036;-77
2022/07/13 04:42:06;;;;;;;5.75;2.38;;;;;;;20.28;71.32;101737.19;5045017;28;20032;-77
2022/07/13 04:44:32;;;;;;;8.57;3.08;;;;;;;20.25;71.59;101737.59;5028637;28;20043;-76
2022/07/13 04:46:58;;;;;;;5.82;2.55;;;;;;;20.26;71.70;101727.88;5046890;28;20111;-77
2022/07/13 04:49:24;;;;;;;4.53;2.50;;;;;;;20.28;71.83;101726.66;5030846;28;20028;-78
2022/07/13 04:51:51;;;;;;;6.93;2.20;;;;;;;20.28;71.63;101724.03;5046542;28;21106;-77
2022/07/13 04:54:18;;;;;;;3.30;2.20;;;;;;;20.29;71.95;101724.84;5045583;28;20032;-76
2022/07/13 04:56:44;;;;;;;9.35;2.45;;;;;;;20.31;72.11;101726.28;5045759;28;20024;-79
2022/07/13 04:59:10;;;;;;;6.57;2.88;;;;;;;20.34;72.24;101731.16;5047495;28;20607;-77
2022/07/13 05:01:36;;;;;;;4.32;2.53;;;;;;;20.32;72.83;101733.16;5066321;28;20115;-78
2022/07/13 05:04:03;;;;;;;7.63;2.70;;;;;;;20.33;72.60;101731.34;5046047;28;20021;-78
2022/07/13 05:06:29;;;;;;;4.00;2.60;;;;;;;20.37;72.38;101727.31;5027852;28;20071;-76
2022/07/13 05:08:56;;;;;;;6.75;3.30;;;;;;;20.40;72.22;101727.72;5029762;28;20028;-78
2022/07/13 05:11:22;;;;;;;3.20;1.83;;;;;;;20.45;72.10;101726.31;5032919;28;20048;-77
2022/07/13 05:13:48;;;;;;;4.22;2.30;;;;;;;20.48;71.75;101724.09;5034902;28;20385;-77
2022/07/13 05:16:14;;;;;;;5.65;2.10;;;;;;;20.51;71.37;101726.34;5046457;28;20810;-76
2022/07/13 05:18:40;;;;;;;7.00;2.30;;;;;;;20.55;71.32;101726.72;5047373;28;20087;-76
2022/07/13 05:21:11;;;;;;;5.50;2.40;;;;;;;20.60;71.32;101724.34;5048803;28;20029;-78
2022/07/13 05:23:37;;;;;;;3.55;2.30;;;;;;;20.59;71.27;101723.50;5047869;28;20082;-77
2022/07/13 05:26:05;;;;;;;8.70;3.08;;;;;;;20.62;71.24;101724.94;5051123;28;20044;-76
2022/07/13 05:28:31;;;;;;;6.03;2.20;;;;;;;20.69;71.24;101722.34;5047290;28;20059;-77
2022/07/13 05:30:57;;;;;;;6.15;2.38;;;;;;;20.74;71.08;101715.44;5028911;28;20025;-76
2022/07/13 05:33:23;;;;;;;8.00;2.38;;;;;;;20.77;70.12;101722.13;5046048;28;20032;-77
2022/07/13 05:35:51;;;;;;;14.70;3.13;;;;;;;20.83;68.73;101723.16;5046839;28;20444;-77
2022/07/13 05:38:17;;;;;;;6.20;2.47;;;;;;;20.93;67.51;101718.31;5049668;28;20024;-76
2022/07/13 05:40:43;;;;;;;7.40;2.42;;;;;;;20.95;68.00;101724.97;5028703;28;20121;-76
2022/07/13 05:43:08;;;;;;;3.15;1.80;;;;;;;20.98;67.84;101721.13;5043925;28;20504;-77
2022/07/13 05:45:34;;;;;;;6.18;2.20;;;;;;;21.04;67.71;101725.59;5042109;28;20028;-77
2022/07/13 05:48:01;;;;;;;7.90;2.78;;;;;;;21.08;68.08;101725.97;5042189;28;20040;-76
2022/07/13 05:50:27;;;;;;;6.13;2.08;;;;;;;21.12;67.40;101721.94;5045859;28;20056;-78
2022/07/13 05:52:54;;;;;;;4.63;2.00;;;;;;;21.17;66.70;101720.31;5043068;28;20040;-78
2022/07/13 05:55:22;;;;;;;4.97;1.98;;;;;;;21.26;66.29;101717.47;5031868;28;20558;-77
2022/07/13 05:57:48;;;;;;;7.72;2.15;;;;;;;21.32;66.11;101716.63;5043921;28;20036;-76
2022/07/13 06:00:14;;;;;;;15.00;2.58;;;;;;;21.33;66.01;101716.44;5043184;28;20032;-76
2022/07/13 06:02:41;;;;;;;6.85;2.88;;;;;;;21.47;65.05;101714.59;5040113;28;20033;-77
2022/07/13 06:05:07;;;;;;;7.25;3.00;;;;;;;21.54;65.27;101710.13;5044189;28;20033;-77
2022/07/13 06:07:33;;;;;;;6.75;1.90;;;;;;;21.64;64.40;101714.97;5048233;28;20036;-77
2022/07/13 06:10:00;;;;;;;5.18;2.15;;;;;;;21.66;65.57;101712.13;5045614;28;20033;-77
2022/07/13 06:12:25;;;;;;;8.43;2.00;;;;;;;21.79;66.97;101706.81;5063421;28;20044;-78
2022/07/13 06:14:54;;;;;;;5.13;2.22;;;;;;;21.86;66.86;101712.06;5046155;28;20481;-77
2022/07/13 06:17:22;;;;;;;3.97;2.08;;;;;;;21.96;65.70;101713.25;5026094;28;20039;-77
2022/07/13 06:19:49;;;;;;;4.55;2.00;;;;;;;22.04;65.44;101719.28;5046210;28;20028;-76
2022/07/13 06:22:15;;;;;;;8.35;2.25;;;;;;;22.16;63.81;101713.13;5062785;28;20032;-78
2022/07/13 06:24:41;;;;;;;5.63;2.20;;;;;;;22.22;64.02;101715.97;5042830;28;20028;-76
2022/07/13 06:27:07;;;;;;;4.88;2.00;;;;;;;22.30;63.90;101718.38;5033988;28;20024;-77
2022/07/13 06:29:33;;;;;;;5.22;1.92;;;;;;;22.41;64.02;101719.53;5034582;28;20400;-76
2022/07/13 06:31:58;;;;;;;7.03;2.35;;;;;;;22.49;64.95;101714.00;5046163;28;20043;-78
2022/07/13 06:34:23;;;;;;;8.40;1.60;;;;;;;22.54;65.84;101708.88;5047209;28;20036;-77
2022/07/13 06:36:49;;;;;;;4.00;1.60;;;;;;;22.58;63.73;101710.06;5027827;28;20032;-77
2022/07/13 06:39:15;;;;;;;4.28;1.83;;;;;;;22.75;60.30;101710.38;5052482;28;20025;-75
2022/07/13 06:41:40;;;;;;;9.35;2.20;;;;;;;22.94;57.41;101712.06;5026636;28;20720;-77
2022/07/13 06:44:06;;;;;;;3.63;2.10;;;;;;;23.08;55.37;101711.97;5061751;28;20052;-78
2022/07/13 06:46:31;;;;;;;2.40;1.55;;;;;;;23.32;55.24;101705.03;5047612;28;20036;-78
2022/07/13 06:48:57;;;;;;;6.82;2.50;;;;;;;23.41;55.58;101700.25;5059895;28;20051;-75
2022/07/13 06:51:23;;;;;;;7.15;2.58;;;;;;;23.58;54.35;101700.47;5053991;28;20029;-74
2022/07/13 06:53:49;;;;;;;4.65;2.17;;;;;;;23.59;54.68;101700.25;5043834;28;20036;-76
2022/07/13 06:56:15;;;;;;;5.18;1.80;;;;;;;23.63;53.30;101697.97;5048316;28;20036;-78
2022/07/13 06:58:40;;;;;;;5.82;2.10;;;;;;;23.78;52.62;101702.88;5030512;28;20078;-78
2022/07/13 07:01:06;;;;;;;3.60;2.00;;;;;;;23.82;53.48;101696.16;5021736;28;20032;-76
2022/07/13 07:03:31;;;;;;;4.10;2.55;;;;;;;23.76;52.23;101697.81;5029564;28;20051;-76
2022/07/13 07:05:58;;;;;;;3.53;1.80;;;;;;;23.78;52.75;101697.59;5043264;28;20085;-78
2022/07/13 07:08:24;;;;;;;5.35;2.22;;;;;;;23.88;52.51;101700.53;5044019;28;20028;-77
2022/07/13 07:10:49;;;;;;;4.38;1.42;;;;;;;23.95;52.91;101701.28;5063125;28;20452;-77
2022/07/13 07:13:15;;;;;;;4.07;2.20;;;;;;;24.12;52.96;101701.44;5066798;28;20036;-76
2022/07/13 07:15:40;;;;;;;5.68;2.38;;;;;;;24.20;52.03;101690.53;5051651;28;20396;-77
2022/07/13 07:18:06;;;;;;;5.63;2.17;;;;;;;24.22;51.25;101688.50;5060016;28;20579;-78
2022/07/13 07:20:32;;;;;;;4.50;1.83;;;;;;;24.29;51.98;101699.78;5065054;28;20089;-76
2022/07/13 07:22:57;;;;;;;5.03;2.25;;;;;;;24.37;53.15;101682.75;5048560;28;20036;-78
2022/07/13 07:25:23;;;;;;;3.22;2.10;;;;;;;24.44;51.40;101688.75;5059233;28;20036;-77
2022/07/13 07:27:48;;;;;;;4.13;2.08;;;;;;;24.57;51.35;101697.59;5065848;28;20541;-78
2022/07/13 07:30:14;;;;;;;3.97;2.08;;;;;;;24.67;51.63;101703.13;5043083;28;20029;-77
2022/07/13 07:32:40;;;;;;;7.28;2.05;;;;;;;24.82;50.77;101710.63;5043688;28;20029;-78
2022/07/13 07:35:07;;;;;;;3.28;2.40;;;;;;;24.88;51.17;101701.75;5046119;28;20520;-77
2022/07/13 07:37:33;;;;;;;6.07;2.65;;;;;;;25.05;49.61;101708.00;5043874;28;20039;-76
2022/07/13 07:39:59;;;;;;;5.70;2.28;;;;;;;25.43;48.73;101708.59;5068799;28;20029;-76
2022/07/13 07:42:25;;;;;;;6.53;2.20;;;;;;;25.53;48.12;101684.09;5045254;28;20027;-76
2022/07/13 07:44:50;;;;;;;4.13;2.15;;;;;;;25.76;48.34;101691.97;5043934;28;20472;-76
2022/07/13 07:47:16;;;;;;;6.88;2.67;;;;;;;25.84;47.03;101685.47;5040508;28;20036;-78
2022/07/13 07:49:42;;;;;;;5.55;2.83;;;;;;;26.76;44.70;101688.94;5064895;28;20025;-77
2022/07/13 07:52:09;;;;;;;3.97;2.35;;;;;;;26.80;45.16;101693.56;5053796;28;20028;-81
2022/07/13 07:54:34;;;;;;;3.30;1.90;;;;;;;26.88;44.01;101681.69;5030518;28;20032;-81
2022/07/13 07:57:00;;;;;;;7.53;1.88;;;;;;;26.63;44.52;101684.75;5044565;28;20631;-78
2022/07/13 07:59:26;;;;;;;3.25;2.00;;;;;;;26.35;44.34;101685.59;5048644;28;20044;-76
2022/07/13 08:01:52;;;;;;;4.35;1.92;;;;;;;26.44;43.80;101681.50;5069118;28;20462;-78
2022/07/13 08:04:17;;;;;;;7.85;1.67;;;;;;;26.95;43.51;101687.63;5052467;28;20032;-78
2022/07/13 08:06:43;;;;;;;6.45;1.55;;;;;;;26.84;43.20;101685.88;5055481;28;20740;-78
2022/07/13 08:09:08;;;;;;;5.80;2.28;;;;;;;26.81;44.15;101686.38;5069794;28;20033;-76
2022/07/13 08:11:35;;;;;;;4.82;1.70;;;;;;;26.62;43.12;101680.50;5048008;28;20032;-77
2022/07/13 08:14:00;;;;;;;8.63;2.22;;;;;;;26.70;42.91;101695.25;5068241;28;20281;-79
2022/07/13 08:16:26;;;;;;;2.90;1.90;;;;;;;26.68;44.33;101684.06;5050956;28;20040;-79
2022/07/13 08:18:51;;;;;;;2.65;2.00;;;;;;;26.96;42.57;101681.28;5047243;28;20044;-78
2022/07/13 08:21:17;;;;;;;5.35;1.67;;;;;;;27.03;42.42;101677.63;5060754;28;20041;-78
2022/07/13 08:23:52;;;;;;;5.43;1.88;;;;;;;26.93;43.15;101676.44;5033634;28;20052;-75
2022/07/13 08:26:22;;;;;;;7.00;1.85;;;;;;;26.90;42.22;101673.44;5047421;28;20028;-75
2022/07/13 08:28:49;;;;;;;4.97;1.92;;;;;;;26.94;42.18;101686.03;5052240;28;20043;-79
2022/07/13 08:31:14;;;;;;;3.33;2.00;;;;;;;27.13;41.95;101683.09;5033132;28;20946;-74
2022/07/13 08:39:11;;;;;;;3.83;1.95;;;;;;;28.44;39.54;101676.00;5071102;28;20032;-75
2022/07/13 08:41:36;;;;;;;4.07;1.95;;;;;;;28.84;38.96;101674.72;5047769;28;20393;-75
2022/07/13 08:44:02;;;;;;;6.90;2.22;;;;;;;29.10;38.60;101666.81;5050980;28;20028;-76
2022/07/13 08:46:28;;;;;;;5.13;2.45;;;;;;;29.20;38.03;101671.47;5051411;28;20484;-76
2022/07/13 08:48:55;;;;;;;9.13;2.08;;;;;;;29.37;37.54;101665.91;5047069;28;20090;-78
2022/07/13 08:51:21;;;;;;;5.38;2.40;;;;;;;29.21;38.42;101676.53;5070952;28;20078;-75
2022/07/13 08:53:48;;;;;;;6.00;2.13;;;;;;;29.20;38.86;101663.47;5068080;28;20035;-79
2022/07/13 08:56:14;;;;;;;7.45;1.80;;;;;;;29.26;39.47;101665.06;5051109;28;20040;-76
2022/07/13 08:58:40;;;;;;;6.47;2.25;;;;;;;29.14;39.10;101657.28;5062235;28;20865;-77
2022/07/13 09:01:08;;;;;;;4.95;1.90;;;;;;;29.10;39.36;101664.97;5067071;28;20028;-78
2022/07/13 09:03:34;;;;;;;11.43;2.05;;;;;;;28.99;40.06;101659.84;5066368;28;20036;-79
2022/07/13 09:05:59;;;;;;;4.70;2.63;;;;;;;28.97;40.35;101667.28;5065709;28;20042;-78
2022/07/13 09:08:25;;;;;;;3.17;1.92;;;;;;;29.25;41.06;101669.63;5045444;28;20032;-77
2022/07/13 09:10:56;;;;;;;3.72;2.20;;;;;;;29.20;39.68;101674.94;5060718;28;20424;-78
2022/07/13 09:13:44;;;;;;;6.25;2.00;;;;;;;28.91;39.81;101677.97;5061492;28;20025;-78
2022/07/13 09:16:21;;;;;;;7.78;1.75;;;;;;;28.82;40.26;101674.16;5065989;28;20036;-80
2022/07/13 09:18:52;;;;;;;2.85;1.95;;;;;;;28.86;40.44;101675.25;5061532;28;20035;-78
2022/07/13 09:21:19;;;;;;;7.07;1.73;;;;;;;28.73;40.30;101673.84;5060302;28;20535;-79
2022/07/13 09:23:49;;;;;;;3.58;2.05;;;;;;;28.85;40.40;101672.84;5047625;28;20032;-76
2022/07/13 09:26:16;;;;;;;5.15;1.90;;;;;;;28.67;41.06;101674.06;5063722;28;20707;-77
2022/07/13 09:28:45;;;;;;;3.28;1.52;;;;;;;28.81;41.30;101675.22;5066135;28;20035;-77
2022/07/13 09:31:15;;;;;;;3.58;2.25;;;;;;;28.99;40.50;101671.34;5060053;28;20040;-75
2022/07/13 09:33:46;;;;;;;8.77;2.40;;;;;;;28.97;41.41;101678.78;5048136;28;20112;-78
2022/07/13 09:36:16;;;;;;;4.82;1.92;;;;;;;28.73;40.92;101681.84;5064828;28;20041;-77
2022/07/13 09:38:43;;;;;;;7.60;2.05;;;;;;;28.64;41.05;101686.03;5064248;28;20088;-75
2022/07/13 09:41:17;;;;;;;11.25;2.05;;;;;;;28.68;41.09;101683.66;5065627;28;20735;-78
2022/07/13 09:47:00;;;;;;;5.38;2.38;;;;;;;28.23;42.08;101695.56;5078643;28;20024;-77
2022/07/13 09:49:40;;;;;;;11.85;3.15;;;;;;;28.00;42.22;101691.34;5062865;28;20043;-79
2022/07/13 09:52:16;;;;;;;4.95;1.98;;;;;;;27.94;43.03;101695.81;5061011;28;20043;-79
2022/07/13 09:54:43;;;;;;;4.03;1.70;;;;;;;27.93;43.60;101691.53;5062522;28;20043;-76
2022/07/13 09:57:13;;;;;;;8.13;1.95;;;;;;;28.05;43.02;101697.53;5057816;28;20032;-78
2022/07/13 09:59:41;;;;;;;6.85;2.35;;;;;;;28.06;43.66;101690.34;5066366;28;20039;-77
2022/07/13 10:02:07;;;;;;;8.18;2.10;;;;;;;27.96;42.81;101688.38;5065596;28;20052;-77
2022/07/13 10:04:33;;;;;;;9.32;2.38;;;;;;;28.12;43.25;101692.81;5034981;28;20059;-78
2022/07/13 10:06:59;;;;;;;3.20;1.80;;;;;;;28.29;43.71;101691.88;5046661;28;20032;-77
2022/07/13 10:09:31;;;;;;;5.40;1.90;;;;;;;28.36;43.13;101687.13;5047889;28;20040;-76
2022/07/13 10:11:57;;;;;;;8.80;2.00;;;;;;;28.39;43.01;101697.31;5048316;28;20075;-78
2022/07/13 10:14:24;;;;;;;4.82;2.22;;;;;;;28.24;43.62;101697.19;5063228;28;20115;-74
2022/07/13 10:16:52;;;;;;;6.53;2.15;;;;;;;28.18;43.68;101700.84;5030879;28;20036;-77
2022/07/13 10:19:19;;;;;;;5.57;2.53;;;;;;;28.27;44.00;101694.00;5063179;28;20356;-79
2022/07/13 10:22:04;;;;;;;5.35;1.60;;;;;;;28.15;44.86;101697.63;5046615;28;20105;-78
2022/07/13 10:24:30;;;;;;;6.95;2.00;;;;;;;28.15;43.82;101704.81;5041596;28;20096;-77
2022/07/13 10:27:20;;;;;;;3.63;2.20;;;;;;;28.08;43.79;101702.34;5038034;28;20222;-77
2022/07/13 10:29:50;;;;;;;4.70;1.83;;;;;;;27.95;44.24;101700.09;5050713;28;20036;-78
2022/07/13 10:32:20;;;;;;;3.65;2.03;;;;;;;27.82;43.71;101701.28;5060379;28;20036;-77
2022/07/13 10:35:20;;;;;;;6.93;2.28;;;;;;;27.81;44.71;101704.19;5047656;28;20032;-78
2022/07/13 10:38:03;;;;;;;6.10;1.60;;;;;;;27.81;44.37;101696.19;5006127;28;20067;-77
2022/07/13 10:40:34;;;;;;;3.38;1.63;;;;;;;27.87;44.57;101701.31;5065725;28;20089;-79
2022/07/13 10:43:05;;;;;;;3.28;1.40;;;;;;;28.09;43.49;101695.19;5057794;28;20185;-79
2022/07/13 10:45:40;;;;;;;3.60;1.42;;;;;;;28.24;43.50;101694.50;5027097;28;20032;-78
2022/07/13 10:48:32;;;;;;;4.80;1.75;;;;;;;28.59;43.97;101694.00;5040797;28;20496;-80
2022/07/13 10:51:00;;;;;;;4.15;1.50;;;;;;;28.85;43.66;101696.84;5035094;28;20044;-78
2022/07/13 10:53:37;;;;;;;6.07;1.55;;;;;;;28.76;43.86;101698.41;5047042;28;20028;-76
2022/07/13 10:56:03;;;;;;;8.10;1.83;;;;;;;29.01;42.93;101700.41;5023023;28;20078;-77
2022/07/13 10:58:32;;;;;;;2.47;1.50;;;;;;;29.30;42.53;101698.19;5041720;28;20017;-77
2022/07/13 11:01:24;;;;;;;12.55;2.42;;;;;;;29.86;41.31;101695.72;5045902;28;20107;-77
2022/07/13 11:03:50;;;;;;;7.07;1.65;;;;;;;30.13;40.38;101684.00;5048498;28;20537;-77
2022/07/13 11:06:23;;;;;;;3.67;1.83;;;;;;;30.17;41.93;101682.38;5041343;28;20035;-76
2022/07/13 11:09:07;;;;;;;5.28;1.90;;;;;;;30.19;40.66;101693.63;5057097;28;20035;-77
2022/07/13 11:11:33;;;;;;;3.15;1.38;;;;;;;30.56;39.15;101683.75;5063618;28;20020;-78
2022/07/13 11:13:58;;;;;;;3.88;1.73;;;;;;;30.89;38.77;101684.22;5061451;28;20496;-77
2022/07/13 11:16:46;;;;;;;6.57;1.52;;;;;;;31.16;38.52;101679.34;5064390;28;20040;-75
2022/07/13 11:19:11;;;;;;;4.57;1.63;;;;;;;31.02;39.15;101681.00;5049746;28;20739;-77
2022/07/13 11:22:08;;;;;;;6.00;1.92;;;;;;;30.88;37.71;101680.75;5062094;28;20126;-78
2022/07/13 11:27:40;;;;;;;4.28;1.60;;;;;;;31.21;39.62;101673.97;5059796;28;20039;-79
2022/07/13 11:30:07;;;;;;;3.65;1.70;;;;;;;31.28;39.21;101683.59;5054978;28;20041;-74
2022/07/13 11:32:32;;;;;;;6.22;1.40;;;;;;;31.07;38.88;101681.00;5063548;28;20386;-78
2022/07/13 11:34:59;;;;;;;2.65;1.35;;;;;;;30.91;38.07;101687.47;5063987;28;20039;-75
2022/07/13 11:37:25;;;;;;;6.65;1.77;;;;;;;30.78;38.03;101678.09;5058024;28;20040;-77